createdAt,value
2022-11-27T00:01:45.193Z,102041.48
2022-11-27T00:04:15.084Z,102038.48
2022-11-27T00:06:46.515Z,102036.80
2022-11-27T00:09:17.006Z,102038.63
2022-11-27T00:11:45.945Z,102029.06
2022-11-27T00:14:18.515Z,102029.29
2022-11-27T00:16:48.041Z,102037.61
2022-11-27T00:19:18.071Z,102038.30
2022-11-27T00:21:47.869Z,102039.31
2022-11-27T00:24:16.303Z,102045.57
2022-11-27T00:26:46.591Z,102042.10
2022-11-27T00:29:15.404Z,102037.60
2022-11-27T00:31:44.299Z,102029.05
2022-11-27T00:34:13.521Z,102033.77
2022-11-27T00:36:46.583Z,102037.68
2022-11-27T00:39:18.149Z,102039.30
2022-11-27T00:41:47.158Z,102040.97
2022-11-27T00:44:16.679Z,102039.34
2022-11-27T00:46:46.064Z,102039.56
2022-11-27T00:49:15.621Z,102040.13
2022-11-27T00:51:44.191Z,102042.84
2022-11-27T00:54:13.810Z,102043.11
2022-11-27T00:56:42.233Z,102039.22
2022-11-27T00:59:11.255Z,102040.38
2022-11-27T01:01:43.516Z,102038.35
2022-11-27T01:04:15.331Z,102039.58
2022-11-27T01:06:44.493Z,102034.89
2022-11-27T01:09:15.423Z,102035.25
2022-11-27T01:11:44.140Z,102041.91
2022-11-27T01:14:14.729Z,102035.95
2022-11-27T01:16:43.649Z,102040.73
2022-11-27T01:19:12.865Z,102043.90
2022-11-27T01:21:42.144Z,102048.30
2022-11-27T01:24:15.386Z,102046.73
2022-11-27T01:26:44.364Z,102053.98
2022-11-27T01:29:12.898Z,102056.14
2022-11-27T01:31:44.046Z,102060.78
2022-11-27T01:34:15.905Z,102056.65
2022-11-27T01:36:45.311Z,102054.55
2022-11-27T01:39:16.265Z,102048.71
2022-11-27T01:41:45.458Z,102043.55
2022-11-27T01:44:48.722Z,102039.45
2022-11-27T01:47:26.546Z,102038.56
2022-11-27T01:50:01.075Z,102036.82
2022-11-27T01:52:32.566Z,102038.75
2022-11-27T01:55:05.704Z,102043.16
2022-11-27T01:57:40.756Z,102045.48
2022-11-27T02:00:13.462Z,102040.55
2022-11-27T02:02:44.235Z,102040.48
2022-11-27T02:05:17.040Z,102025.53
2022-11-27T02:07:46.344Z,102028.92
2022-11-27T02:10:15.964Z,102037.38
2022-11-27T02:12:52.855Z,102038.66
2022-11-27T02:15:30.111Z,102039.98
2022-11-27T02:18:06.285Z,102036.12
2022-11-27T02:20:48.300Z,102037.41
2022-11-27T02:23:58.192Z,102034.23
2022-11-27T02:27:03.727Z,102039.59
2022-11-27T02:29:34.247Z,102039.95
2022-11-27T02:32:09.759Z,102045.17
2022-11-27T02:34:48.629Z,102044.08
2022-11-27T02:37:23.805Z,102043.38
2022-11-27T02:40:01.553Z,102049.86
2022-11-27T02:42:33.931Z,102042.99
2022-11-27T02:45:09.364Z,102040.98
2022-11-27T02:47:39.867Z,102039.16
2022-11-27T02:50:14.254Z,102032.02
2022-11-27T02:52:44.764Z,102032.09
2022-11-27T02:55:20.391Z,102017.88
2022-11-27T02:57:51.921Z,102027.58
2022-11-27T03:00:21.048Z,102030.58
2022-11-27T03:02:57.119Z,102030.08
2022-11-27T03:05:30.020Z,102030.91
2022-11-27T03:08:02.727Z,102034.39
2022-11-27T03:10:41.419Z,102027.86
2022-11-27T03:13:10.787Z,102029.02
2022-11-27T03:15:45.854Z,102027.95
2022-11-27T03:18:19.109Z,102027.23
2022-11-27T03:20:57.051Z,102011.58
2022-11-27T03:23:28.179Z,102022.41
2022-11-27T03:25:59.155Z,102024.92
2022-11-27T03:28:32.592Z,102026.52
2022-11-27T03:31:03.173Z,101995.39
2022-11-27T03:33:31.577Z,102017.86
2022-11-27T03:35:59.775Z,102017.08
2022-11-27T03:38:29.120Z,102016.51
2022-11-27T03:41:09.132Z,102009.89
2022-11-27T03:43:45.843Z,102004.63
2022-11-27T03:46:31.395Z,102000.50
2022-11-27T03:49:08.693Z,101996.81
2022-11-27T03:51:43.310Z,101992.30
2022-11-27T03:54:22.947Z,101993.60
2022-11-27T03:57:01.879Z,101988.27
2022-11-27T03:59:33.911Z,101987.36
2022-11-27T04:02:02.313Z,101983.75
2022-11-27T04:04:30.894Z,101992.99
2022-11-27T04:06:59.352Z,101992.05
2022-11-27T04:09:30.023Z,101995.97
2022-11-27T04:11:58.322Z,102003.47
2022-11-27T04:14:27.489Z,101995.70
2022-11-27T04:16:55.819Z,101996.73
2022-11-27T04:19:25.044Z,101987.66
2022-11-27T04:21:53.795Z,101981.09
2022-11-27T04:24:22.337Z,101976.56
2022-11-27T04:26:50.712Z,101974.63
2022-11-27T04:29:19.174Z,101973.16
2022-11-27T04:31:47.546Z,101970.96
2022-11-27T04:34:16.113Z,101967.13
2022-11-27T04:36:45.606Z,101967.73
2022-11-27T04:39:14.635Z,101971.09
2022-11-27T04:41:43.000Z,101972.84
2022-11-27T04:44:11.759Z,101972.89
2022-11-27T04:46:41.083Z,101973.70
2022-11-27T04:49:11.175Z,101975.11
2022-11-27T04:51:39.606Z,101972.04
2022-11-27T04:54:11.805Z,101964.66
2022-11-27T04:56:40.790Z,101970.20
2022-11-27T04:59:12.035Z,101970.59
2022-11-27T05:01:40.944Z,101973.30
2022-11-27T05:04:10.558Z,101976.62
2022-11-27T05:06:39.003Z,101981.05
2022-11-27T05:09:09.670Z,101981.48
2022-11-27T05:11:39.676Z,101980.52
2022-11-27T05:14:17.598Z,101979.96
2022-11-27T05:16:48.652Z,101977.35
2022-11-27T05:19:18.500Z,101975.89
2022-11-27T05:21:47.853Z,101980.70
2022-11-27T05:24:17.792Z,101985.50
2022-11-27T05:26:46.192Z,101986.61
2022-11-27T05:29:15.244Z,101986.91
2022-11-27T05:31:44.588Z,101987.40
2022-11-27T05:34:14.096Z,101984.75
2022-11-27T05:36:44.882Z,101984.59
2022-11-27T05:39:13.768Z,101989.05
2022-11-27T05:41:43.439Z,101994.14
2022-11-27T05:44:14.746Z,101992.50
2022-11-27T05:46:43.618Z,101993.66
2022-11-27T05:49:14.551Z,101985.27
2022-11-27T05:51:49.169Z,101996.71
2022-11-27T05:54:19.623Z,101996.42
2022-11-27T05:56:47.855Z,101990.63
2022-11-27T05:59:16.751Z,101992.73
2022-11-27T06:01:45.728Z,101991.23
2022-11-27T06:04:14.295Z,101981.91
2022-11-27T06:06:43.142Z,101993.43
2022-11-27T06:09:13.441Z,101993.01
2022-11-27T06:11:43.886Z,101997.79
2022-11-27T06:14:14.718Z,101981.88
2022-11-27T06:16:43.086Z,101995.73
2022-11-27T06:19:13.451Z,101998.77
2022-11-27T06:21:42.720Z,102002.86
2022-11-27T06:24:12.549Z,102003.03
2022-11-27T06:26:44.784Z,102007.78
2022-11-27T06:29:13.582Z,102008.80
2022-11-27T06:31:43.933Z,102006.80
2022-11-27T06:34:12.848Z,102003.42
2022-11-27T06:36:44.195Z,102007.60
2022-11-27T06:39:12.548Z,102015.89
2022-11-27T06:41:44.622Z,102010.13
2022-11-27T06:44:13.097Z,102012.83
2022-11-27T06:46:41.607Z,102016.88
2022-11-27T06:49:10.523Z,102011.45
2022-11-27T06:51:42.279Z,102010.14
2022-11-27T06:54:11.350Z,102007.88
2022-11-27T06:56:43.017Z,102009.91
2022-11-27T06:59:14.625Z,102010.15
2022-11-27T07:01:44.221Z,102011.21
2022-11-27T07:04:15.423Z,102014.55
2022-11-27T07:06:44.299Z,102007.36
2022-11-27T07:09:12.580Z,102004.25
2022-11-27T07:11:40.900Z,102001.75
2022-11-27T07:14:10.380Z,102002.92
2022-11-27T07:16:38.803Z,102001.30
2022-11-27T07:19:08.077Z,102003.38
2022-11-27T07:21:37.627Z,101998.67
2022-11-27T07:24:07.420Z,102002.98
2022-11-27T07:26:35.694Z,102000.66
2022-11-27T07:29:03.904Z,101998.83
2022-11-27T07:31:32.286Z,101993.92
2022-11-27T07:34:00.587Z,101991.66
2022-11-27T07:36:30.579Z,101996.02
2022-11-27T07:38:59.379Z,101993.71
2022-11-27T07:41:33.657Z,101993.19
2022-11-27T07:44:02.795Z,102000.18
2022-11-27T07:46:31.267Z,101995.38
2022-11-27T07:49:00.092Z,101988.52
2022-11-27T07:51:28.391Z,101993.21
2022-11-27T07:53:57.221Z,101994.23
2022-11-27T07:56:26.771Z,101999.69
2022-11-27T07:58:55.745Z,101997.96
2022-11-27T08:01:24.937Z,102002.59
2022-11-27T08:03:53.270Z,101998.55
2022-11-27T08:06:23.409Z,101964.11
2022-11-27T08:08:52.543Z,101995.92
2022-11-27T08:11:23.257Z,101999.59
2022-11-27T08:13:56.544Z,101999.80
2022-11-27T08:16:25.465Z,102000.48
2022-11-27T08:18:54.084Z,101999.73
2022-11-27T08:21:22.584Z,102000.63
2022-11-27T08:23:51.419Z,102002.42
2022-11-27T08:26:20.285Z,102002.50
2022-11-27T08:28:51.517Z,102002.63
2022-11-27T08:31:20.870Z,101997.54
2022-11-27T08:33:49.605Z,102002.50
2022-11-27T08:36:18.569Z,102002.42
2022-11-27T08:38:47.090Z,102000.74
2022-11-27T08:41:16.035Z,102002.00
2022-11-27T08:43:44.613Z,101989.41
2022-11-27T08:46:13.222Z,101998.19
2022-11-27T08:48:41.665Z,102000.21
2022-11-27T08:51:12.367Z,101991.89
2022-11-27T08:53:41.041Z,101988.59
2022-11-27T08:56:14.320Z,102004.80
2022-11-27T08:58:43.292Z,102000.55
2022-11-27T09:01:14.288Z,102003.58
2022-11-27T09:03:42.811Z,101997.10
2022-11-27T09:06:13.104Z,102001.77
2022-11-27T09:08:43.120Z,102002.48
2022-11-27T09:11:12.836Z,101990.38
2022-11-27T09:13:42.097Z,101998.52
2022-11-27T09:16:12.197Z,101992.20
2022-11-27T09:18:41.137Z,101995.98
2022-11-27T09:21:11.278Z,101988.35
2022-11-27T09:23:40.084Z,101990.77
2022-11-27T09:26:10.578Z,101985.45
2022-11-27T09:28:40.379Z,101987.14
2022-11-27T09:31:11.800Z,101985.62
2022-11-27T09:33:41.415Z,101988.02
2022-11-27T09:36:12.091Z,101987.81
2022-11-27T09:38:40.490Z,101982.29
2022-11-27T09:41:35.042Z,101982.35
2022-11-27T09:44:16.446Z,101982.70
2022-11-27T09:46:45.239Z,101979.27
2022-11-27T09:49:18.091Z,101978.03
2022-11-27T09:51:53.183Z,101977.40
2022-11-27T09:54:25.475Z,101951.77
2022-11-27T09:56:55.992Z,101973.90
2022-11-27T09:59:29.755Z,101968.58
2022-11-27T10:01:58.342Z,101972.73
2022-11-27T10:04:30.432Z,101967.29
2022-11-27T10:07:20.221Z,101971.11
2022-11-27T10:10:04.908Z,101971.28
2022-11-27T10:12:48.004Z,101955.02
2022-11-27T10:15:22.540Z,101961.05
2022-11-27T10:18:02.585Z,101959.33
2022-11-27T10:20:39.088Z,101953.80
2022-11-27T10:23:15.655Z,101955.73
2022-11-27T10:25:48.064Z,101950.70
2022-11-27T10:28:27.943Z,101945.08
2022-11-27T10:31:00.471Z,101944.30
2022-11-27T10:33:38.036Z,101940.02
2022-11-27T10:36:13.685Z,101935.34
2022-11-27T10:38:43.552Z,101931.67
2022-11-27T10:41:47.753Z,101932.06
2022-11-27T10:44:21.934Z,101924.37
2022-11-27T10:46:52.844Z,101921.04
2022-11-27T10:49:21.472Z,101924.40
2022-11-27T10:51:50.064Z,101926.23
2022-11-27T10:54:25.314Z,101923.43
2022-11-27T10:57:11.787Z,101923.06
2022-11-27T10:59:48.269Z,101918.07
2022-11-27T11:02:29.660Z,101916.38
2022-11-27T11:05:32.549Z,101917.16
2022-11-27T11:07:59.921Z,101919.52
2022-11-27T11:10:32.107Z,101918.92
2022-11-27T11:13:22.622Z,101916.98
2022-11-27T11:15:54.859Z,101913.38
2022-11-27T11:18:26.298Z,101914.42
2022-11-27T11:20:57.763Z,101914.81
2022-11-27T11:23:30.828Z,101917.01
2022-11-27T11:34:41.270Z,101908.22
2022-11-27T11:37:56.865Z,101914.98
2022-11-27T11:41:17.419Z,101911.98
2022-11-27T11:44:01.671Z,101910.70
2022-11-27T11:46:33.096Z,101911.42
2022-11-27T11:49:06.456Z,101912.20
2022-11-27T11:52:02.449Z,101913.30
2022-11-27T11:54:51.791Z,101912.10
2022-11-27T11:57:57.587Z,101910.23
2022-11-27T12:00:48.677Z,101911.34
2022-11-27T12:03:35.604Z,101902.62
2022-11-27T12:06:23.598Z,101896.48
2022-11-27T12:09:10.734Z,101895.77
2022-11-27T12:11:48.729Z,101889.55
2022-11-27T12:14:28.087Z,101880.40
2022-11-27T12:17:08.807Z,101878.76
2022-11-27T12:19:53.427Z,101882.20
2022-11-27T12:22:37.065Z,101878.78
2022-11-27T12:25:23.079Z,101875.28
2022-11-27T12:31:38.606Z,101879.55
2022-11-27T12:34:20.178Z,101883.91
2022-11-27T12:37:04.821Z,101881.63
2022-11-27T12:39:44.691Z,101887.45
2022-11-27T12:42:22.354Z,101882.80
2022-11-27T12:44:58.168Z,101882.98
2022-11-27T12:47:38.772Z,101882.73
2022-11-27T12:50:19.836Z,101873.08
2022-11-27T12:53:04.210Z,101872.59
2022-11-27T12:55:35.503Z,101879.17
2022-11-27T12:58:12.700Z,101877.27
2022-11-27T13:00:43.420Z,101868.64
2022-11-27T13:03:21.442Z,101873.56
2022-11-27T13:05:53.906Z,101864.67
2022-11-27T13:08:30.628Z,101862.03
2022-11-27T13:11:04.759Z,101861.13
2022-11-27T13:13:40.188Z,101864.05
2022-11-27T13:16:18.061Z,101865.81
2022-11-27T13:18:54.617Z,101862.48
2022-11-27T13:21:52.133Z,101861.35
2022-11-27T13:24:25.644Z,101853.54
2022-11-27T13:27:06.160Z,101849.15
2022-11-27T13:29:43.024Z,101850.00
2022-11-27T13:32:21.806Z,101853.89
2022-11-27T13:35:01.976Z,101857.69
2022-11-27T13:37:37.551Z,101859.34
2022-11-27T13:40:21.249Z,101853.96
2022-11-27T13:42:55.096Z,101852.07
2022-11-27T13:45:26.353Z,101837.43
2022-11-27T13:50:55.270Z,101844.91
2022-11-27T13:53:33.325Z,101845.66
2022-11-27T13:56:03.697Z,101848.07
2022-11-27T13:59:00.247Z,101850.86
2022-11-27T14:01:29.215Z,101838.98
2022-11-27T14:04:08.830Z,101833.33
2022-11-27T14:06:42.211Z,101832.39
2022-11-27T14:09:11.963Z,101818.27
2022-11-27T14:11:45.195Z,101816.23
2022-11-27T14:14:20.251Z,101827.95
2022-11-27T14:16:57.348Z,101826.20
2022-11-27T14:19:34.182Z,101823.70
2022-11-27T14:22:15.842Z,101820.20
2022-11-27T14:24:53.317Z,101809.61
2022-11-27T14:27:24.231Z,101820.23
2022-11-27T14:29:55.302Z,101816.48
2022-11-27T14:32:34.181Z,101814.55
2022-11-27T14:35:02.672Z,101806.15
2022-11-27T14:37:31.454Z,101805.50
2022-11-27T14:40:00.455Z,101805.23
2022-11-27T14:42:32.037Z,101796.20
2022-11-27T14:45:12.264Z,101787.86
2022-11-27T14:47:47.657Z,101786.23
2022-11-27T14:50:17.491Z,101777.08
2022-11-27T14:52:52.959Z,101776.98
2022-11-27T14:55:23.222Z,101768.10
2022-11-27T14:57:52.284Z,101768.23
2022-11-27T15:00:26.827Z,101759.71
2022-11-27T15:03:06.928Z,101772.59
2022-11-27T15:05:39.776Z,101764.94
2022-11-27T15:08:10.817Z,101779.02
2022-11-27T15:10:41.231Z,101784.06
2022-11-27T15:13:23.400Z,101783.64
2022-11-27T15:16:01.448Z,101786.23
2022-11-27T15:18:32.901Z,101784.08
2022-11-27T15:21:09.009Z,101760.71
2022-11-27T15:23:38.079Z,101780.87
2022-11-27T15:26:16.060Z,101778.55
2022-11-27T15:28:52.885Z,101786.84
2022-11-27T15:31:32.348Z,101789.05
2022-11-27T15:34:04.259Z,101784.68
2022-11-27T15:36:38.722Z,101787.96
2022-11-27T15:39:21.225Z,101784.67
2022-11-27T15:42:43.531Z,101782.72
2022-11-27T15:45:20.541Z,101790.15
2022-11-27T15:49:13.622Z,101799.79
2022-11-27T15:51:45.309Z,101800.67
2022-11-27T15:54:19.510Z,101788.67
2022-11-27T15:57:39.414Z,101776.09
2022-11-27T16:00:18.643Z,101770.20
2022-11-27T16:06:12.665Z,101776.41
2022-11-27T16:08:41.942Z,101770.23
2022-11-27T16:11:19.367Z,101766.27
2022-11-27T16:13:49.109Z,101762.48
2022-11-27T16:16:19.416Z,101765.25
2022-11-27T16:18:49.699Z,101740.29
2022-11-27T16:21:24.304Z,101750.42
2022-11-27T16:24:01.869Z,101752.41
2022-11-27T16:26:31.951Z,101753.05
2022-11-27T16:29:02.809Z,101749.17
2022-11-27T16:31:32.096Z,101730.92
2022-11-27T16:34:01.618Z,101737.95
2022-11-27T16:36:30.632Z,101736.54
2022-11-27T16:38:59.815Z,101734.49
2022-11-27T16:41:37.435Z,101732.23
2022-11-27T16:44:13.520Z,101729.89
2022-11-27T16:46:45.225Z,101729.02
2022-11-27T16:49:15.083Z,101726.80
2022-11-27T16:51:44.347Z,101720.30
2022-11-27T16:54:15.113Z,101729.18
2022-11-27T16:56:46.440Z,101731.84
2022-11-27T16:59:16.899Z,101729.58
2022-11-27T17:04:43.174Z,101723.80
2022-11-27T17:07:13.796Z,101724.48
2022-11-27T17:09:42.738Z,101721.46
2022-11-27T17:12:12.377Z,101716.69
2022-11-27T17:14:46.601Z,101720.10
2022-11-27T17:17:41.147Z,101716.36
2022-11-27T17:20:10.980Z,101717.52
2022-11-27T17:22:41.094Z,101720.18
2022-11-27T17:25:10.781Z,101721.54
2022-11-27T17:27:41.124Z,101721.84
2022-11-27T17:30:11.373Z,101721.25
2022-11-27T17:33:10.253Z,101713.86
2022-11-27T17:35:40.341Z,101711.90
2022-11-27T17:38:12.883Z,101704.13
2022-11-27T17:40:41.901Z,101702.55
2022-11-27T17:43:38.373Z,101704.63
2022-11-27T17:46:09.338Z,101698.35
2022-11-27T17:48:38.281Z,101702.20
2022-11-27T17:51:07.996Z,101699.42
2022-11-27T17:53:39.717Z,101690.52
2022-11-27T17:56:12.686Z,101696.83
2022-11-27T17:58:43.621Z,101694.59
2022-11-27T18:01:17.847Z,101695.30
2022-11-27T18:03:47.283Z,101696.75
2022-11-27T18:06:18.069Z,101695.48
2022-11-27T18:08:48.413Z,101686.30
2022-11-27T18:11:18.941Z,101697.23
2022-11-27T18:13:48.421Z,101696.31
2022-11-27T18:16:21.628Z,101694.42
2022-11-27T18:18:51.657Z,101687.02
2022-11-27T18:21:23.784Z,101683.08
2022-11-27T18:24:21.970Z,101683.60
2022-11-27T18:27:07.340Z,101683.19
2022-11-27T18:29:31.866Z,101661.61
2022-11-27T18:32:02.332Z,101671.36
2022-11-27T18:34:31.141Z,101671.11
2022-11-27T18:37:01.307Z,101669.83
2022-11-27T18:39:30.707Z,101669.84
2022-11-27T18:41:59.585Z,101669.58
2022-11-27T18:44:29.346Z,101668.13
2022-11-27T18:47:07.217Z,101670.63
2022-11-27T18:49:42.323Z,101669.74
2022-11-27T18:52:39.265Z,101664.71
2022-11-27T18:55:35.427Z,101665.77
2022-11-27T18:58:53.609Z,101671.15
2022-11-27T19:01:26.465Z,101678.36
2022-11-27T19:04:00.315Z,101678.88
2022-11-27T19:06:31.380Z,101684.08
2022-11-27T19:09:00.435Z,101675.32
2022-11-27T19:11:30.410Z,101670.53
2022-11-27T19:14:00.780Z,101669.69
2022-11-27T19:16:32.644Z,101664.52
2022-11-27T19:19:04.016Z,101662.54
2022-11-27T19:21:33.752Z,101657.27
2022-11-27T19:24:04.264Z,101655.15
2022-11-27T19:26:36.962Z,101655.09
2022-11-27T19:29:09.922Z,101651.08
2022-11-27T19:31:40.406Z,101645.80
2022-11-27T19:40:00.264Z,101640.02
2022-11-27T19:42:28.923Z,101634.10
2022-11-27T19:44:57.805Z,101631.27
2022-11-27T19:47:27.320Z,101616.85
2022-11-27T19:50:02.673Z,101629.31
2022-11-27T19:52:59.299Z,101628.60
2022-11-27T19:55:53.510Z,101628.99
2022-11-27T19:58:46.690Z,101625.67
2022-11-27T20:01:18.440Z,101624.52
2022-11-27T20:03:49.476Z,101622.89
2022-11-27T20:06:43.185Z,101616.84
2022-11-27T20:09:14.398Z,101614.41
2022-11-27T20:11:43.046Z,101613.11
2022-11-27T20:14:13.311Z,101614.67
2022-11-27T20:16:48.250Z,101610.30
2022-11-27T20:22:19.341Z,101608.74
2022-11-27T20:25:17.289Z,101608.85
2022-11-27T20:27:37.356Z,101607.25
2022-11-27T20:30:08.321Z,101602.13
2022-11-27T20:32:36.851Z,101596.74
2022-11-27T20:35:06.280Z,101594.81
2022-11-27T20:37:35.091Z,101595.05
2022-11-27T20:40:04.721Z,101589.95
2022-11-27T20:42:33.131Z,101576.31
2022-11-27T20:45:04.572Z,101586.15
2022-11-27T20:47:33.971Z,101594.79
2022-11-27T20:50:02.434Z,101589.80
2022-11-27T20:52:31.006Z,101583.31
2022-11-27T20:54:59.681Z,101589.25
2022-11-27T20:57:28.079Z,101585.96
2022-11-27T20:59:56.406Z,101585.65
2022-11-27T21:02:24.843Z,101585.83
2022-11-27T21:04:53.725Z,101583.47
2022-11-27T21:07:22.412Z,101588.31
2022-11-27T21:09:51.138Z,101585.80
2022-11-27T21:12:19.903Z,101588.83
2022-11-27T21:14:48.360Z,101583.13
2022-11-27T21:17:16.904Z,101582.34
2022-11-27T21:19:45.979Z,101585.89
2022-11-27T21:22:14.668Z,101584.39
2022-11-27T21:24:44.340Z,101586.12
2022-11-27T21:27:15.992Z,101574.55
2022-11-27T21:29:44.637Z,101584.08
2022-11-27T21:32:13.071Z,101582.86
2022-11-27T21:34:41.882Z,101575.06
2022-11-27T21:37:10.512Z,101578.19
2022-11-27T21:39:40.484Z,101577.84
2022-11-27T21:42:09.270Z,101576.65
2022-11-27T21:44:40.849Z,101571.58
2022-11-27T21:47:11.384Z,101556.77
2022-11-27T21:49:40.825Z,101567.80
2022-11-27T21:52:10.121Z,101565.66
2022-11-27T21:54:38.936Z,101569.48
2022-11-27T21:57:09.390Z,101566.70
2022-11-27T21:59:38.228Z,101563.05
2022-11-27T22:02:06.889Z,101561.71
2022-11-27T22:04:35.375Z,101558.74
2022-11-27T22:07:03.743Z,101558.55
2022-11-27T22:09:32.921Z,101560.01
2022-11-27T22:12:01.255Z,101561.61
2022-11-27T22:14:29.986Z,101550.13
2022-11-27T22:16:58.725Z,101547.90
2022-11-27T22:19:27.699Z,101561.34
2022-11-27T22:21:56.445Z,101562.41
2022-11-27T22:24:25.611Z,101545.92
2022-11-27T22:26:53.983Z,101557.45
2022-11-27T22:29:22.659Z,101559.20
2022-11-27T22:31:52.871Z,101554.54
2022-11-27T22:34:21.351Z,101546.10
2022-11-27T22:36:49.882Z,101546.84
2022-11-27T22:39:18.214Z,101541.03
2022-11-27T22:41:47.499Z,101534.64
2022-11-27T22:44:18.016Z,101534.80
2022-11-27T22:46:47.577Z,101536.01
2022-11-27T22:49:18.175Z,101538.17
2022-11-27T22:51:46.913Z,101536.59
2022-11-27T22:54:17.056Z,101535.86
2022-11-27T22:56:46.376Z,101521.08
2022-11-27T22:59:32.855Z,101534.42
2022-11-27T23:02:04.529Z,101526.86
2022-11-27T23:04:33.832Z,101512.34
2022-11-27T23:07:02.215Z,101529.22
2022-11-27T23:09:31.240Z,101532.77
2022-11-27T23:11:59.771Z,101530.15
2022-11-27T23:14:28.300Z,101531.25
2022-11-27T23:16:57.207Z,101520.66
2022-11-27T23:19:29.719Z,101526.58
2022-11-27T23:21:58.529Z,101524.90
2022-11-27T23:24:27.201Z,101525.05
2022-11-27T23:26:56.205Z,101514.18
2022-11-27T23:29:24.922Z,101527.08
2022-11-27T23:31:53.773Z,101528.41
2022-11-27T23:34:22.168Z,101528.41
2022-11-27T23:36:50.575Z,101524.77
2022-11-27T23:39:21.382Z,101525.31
2022-11-27T23:41:49.675Z,101523.83
2022-11-27T23:44:18.045Z,101523.81
2022-11-27T23:46:47.699Z,101522.68
2022-11-27T23:49:18.224Z,101515.96
2022-11-27T23:51:47.495Z,101507.04
2022-11-27T23:54:15.836Z,101518.73
2022-11-27T23:56:44.154Z,101517.48
2022-11-27T23:59:12.898Z,101514.42
